Portada
METAR-TAF:

METAR-TAF

Aeropuertos :

Aeropuerto Internacional de Nội Bài

Hanói, Vietnam

latitud: 21-01N, longitud: 105-48E, altitud: 6 m

Observación

El informe se hizo hace 13 minutos, a las 19:00 UTC
Viento 7 kt del este-sureste, variando entre este y sureste
Temperatura 28°C
Humedad 94%
Presión 1000 hPa
Visibilidad 10 km o más
Cielo nuboso a una altura de 1400 ft

METAR: VVNB 181900Z 11007KT 080V140 9999 BKN014 28/27 Q1000 NOSIG

Hora: 02:13 (19:13 UTC)

Pronóstico

El informe se hizo hace 2 horas y 13 minutos, a las 17:00 UTC
Pronóstico válido del 18 a las 18 UTC al 19 a las 18 UTC
Viento 8 kt del este-sureste
Visibilidad 10 km o más
Nubes dispersas a una altura de 2000 ft

TAF: VVNB 181700Z 1818/1918 12008KT 9999 SCT020

Observaciones y pronósticos meteorológicos de más de 4000 aeropuertos (mensajes METAR y TAF).

Los puntos amarillos y rojos representan las estaciones disponibles.

Ponga el ratón en el punto deseado para ver el nombre de la estación.

Haga clic para ver las observaciones y los pronósticos meteorológicos.

Para cambiar el mapa : haga clic en los botones verdes con una cruz de color negro para hacer un zoom, en el botón verde con un guión para alejar o en las flechas verdes para mapas adyacentes.


METAR-TAF: